Terminal Aerodrome Forecast
Issued by NWS

Home | Current Version | Previous Version | Text Only | Print | Product List | Glossary On
Versions: 1 2 3 4 5 6 7 8 9 10 11 12 13
000
FTUS44 KLIX 211722
TAFHUM
TAF
KHUM 211722Z 2118/2218 11011KT P6SM SCT035 BKN100
     FM220100 13006KT P6SM SCT025 BKN050
     FM220400 14006KT P6SM BKN025 OVC050
     FM221200 18011KT 5SM SHRA VCTS OVC015CB
      TEMPO 2212/2216 VRB20KT 2SM TSRA BKN003CB
     FM221600 20013KT 5SM SHRA OVC020=

USA.gov is the U.S. government's official web portal to all federal, state and local government web resources and services.